ADDS METAR Data INFO
IDs: Format: Raw Decoded Include TAF

Data at: 2345 UTC 15 Dec 2017

KHIE 152252Z AUTO 00000KT 10SM SCT120 M09/M11 A2981 RMK AO2 SLP126 T10941111
KHIE 152152Z AUTO 00000KT 10SM FEW120 M09/M11 A2982 RMK AO2 SLP128 T10891106
KHIE 152052Z AUTO 00000KT 10SM CLR M07/M13 A2984 RMK AO2 SLP134 T10721133 58016
KHIE 151952Z AUTO 32003KT 10SM CLR M06/M16 A2987 RMK AO2 SLP142 T10611156
KHIE 151852Z AUTO 00000KT 10SM CLR M06/M16 A2987 RMK AO2 SLP144 T10561161
KHIE 151752Z AUTO 00000KT 10SM CLR M06/M16 A2989 RMK AO2 SLP150 T10611161 11056 21267 58029
KHIE 151652Z AUTO 00000KT 10SM CLR M07/M13 A2992 RMK AO2 SLP161 T10671133
KHIE 151552Z AUTO 00000KT 10SM CLR M13/M14 A2996 RMK AO2 SLP177 T11281144
KHIE 151452Z AUTO 00000KT 10SM CLR M17/M19 A2998 RMK AO2 SLP186 T11721194 51009
KHIE 151352Z AUTO 00000KT 10SM CLR M23/M27 A2998 RMK AO2 SLP186 T12331267
KHIE 151252Z AUTO 00000KT 10SM CLR M26/M28 A2996 RMK AO2 SLP181 T12561283
KHIE 151152Z AUTO 00000KT 10SM CLR M26/M29 A2995 RMK AO2 SLP179 T12611289 11233 21261 53006
KHIE 151052Z AUTO 00000KT 10SM CLR M26/M28 A2994 RMK AO2 SLP172 T12611283
KHIE 150952Z AUTO 00000KT 10SM CLR M25/M28 A2993 RMK AO2 SLP169 T12501283
KHIE 150852Z AUTO 00000KT 10SM CLR M24/M28 A2993 RMK AO2 SLP167 T12441278 51012
KHIE 150752Z AUTO 00000KT 10SM CLR M25/M28 A2993 RMK AO2 SLP165 T12501278
KHIE 150652Z AUTO 00000KT 10SM CLR M24/M27 A2991 RMK AO2 SLP158 T12441272
KHIE 150552Z AUTO 00000KT 10SM CLR M24/M27 A2989 RMK AO2 SLP153 I6000 T12441267 11194 21250 50013
KHIE 150452Z AUTO 00000KT 10SM CLR M24/M26 A2990 RMK AO2 SLP154 T12441261 410941244
KHIE 150352Z AUTO 00000KT 10SM CLR M24/M26 A2988 RMK AO2 SLP149 T12391261
KHIE 150252Z AUTO 00000KT 10SM CLR M23/M26 A2986 RMK AO2 SLP140 I1000 I3000 T12281256 53024
KHIE 150152Z AUTO 00000KT 10SM CLR M22/M24 A2982 RMK AO2 SLP128 I1000 T12171239
KHIE 150052Z AUTO 00000KT 10SM CLR M21/M23 A2980 RMK AO2 SLP123 I1000 T12111228
KHIE 142352Z AUTO 00000KT 10SM CLR M20/M22 A2978 RMK AO2 SLP115 I1000 I6000 T12001222 11094 21206 51034
KHIE 142252Z AUTO 00000KT 10SM CLR M18/M20 A2976 RMK AO2 SLP107 T11781200
KHIE 142152Z AUTO 27003KT 10SM CLR M14/M19 A2973 RMK AO2 SLP093 T11391189
KHIE 142052Z AUTO 30006KT 10SM CLR M12/M20 A2968 RMK AO2 SLP074 T11221200 53030
KHIE 141952Z AUTO 29008KT 10SM CLR M11/M21 A2964 RMK AO2 SLP059 T11061206
KHIE 141852Z AUTO 29011KT 10SM CLR M10/M20 A2961 RMK AO2 SLP051 T11001200
KHIE 141752Z AUTO 25009KT 10SM CLR M10/M19 A2959 RMK AO2 SLP041 T11001194 11100 21167 53010
KHIE 141652Z AUTO 30011KT 10SM CLR M10/M19 A2957 RMK AO2 SLP036 T11001189
KHIE 141552Z AUTO 32004KT 10SM CLR M11/M16 A2956 RMK AO2 SLP034 T11061161
KHIE 141452Z AUTO 28006KT 10SM FEW120 M12/M17 A2956 RMK AO2 SLP032 T11171167 53018
KHIE 141352Z AUTO 00000KT 10SM FEW090 M14/M17 A2954 RMK AO2 SLP027 T11391167
KHIE 141252Z AUTO 00000KT 10SM OVC100 M16/M17 A2952 RMK AO2 SLP020 T11561172
KHIE 141152Z AUTO 00000KT 10SM OVC110 M16/M18 A2950 RMK AO2 SLP015 70001 T11561178 11128 21167 53016